createdAt,value
2019-04-27T00:00:47.030Z,5.83
2019-04-27T00:03:18.121Z,5.20
2019-04-27T00:05:53.633Z,5.00
2019-04-27T00:08:35.658Z,4.47
2019-04-27T00:11:16.301Z,4.17
2019-04-27T00:13:44.118Z,3.73
2019-04-27T00:16:34.538Z,5.97
2019-04-27T00:19:20.550Z,6.77
2019-04-27T00:21:59.859Z,6.50
2019-04-27T00:24:27.511Z,12.30
2019-04-27T00:26:55.133Z,6.60
2019-04-27T00:29:23.646Z,6.20
2019-04-27T00:31:53.415Z,6.40
2019-04-27T00:34:21.632Z,5.90
2019-04-27T00:37:00.664Z,6.17
2019-04-27T00:39:45.785Z,6.47
2019-04-27T00:42:13.529Z,6.33
2019-04-27T00:44:42.873Z,6.40
2019-04-27T00:47:10.643Z,9.27
2019-04-27T00:49:38.272Z,9.33
2019-04-27T00:52:05.902Z,6.77
2019-04-27T00:54:33.993Z,8.03
2019-04-27T00:57:16.185Z,7.90
2019-04-27T01:00:03.188Z,7.30
2019-04-27T01:02:56.859Z,6.97
2019-04-27T01:05:25.821Z,7.80
2019-04-27T01:07:53.758Z,8.50
2019-04-27T01:10:23.240Z,6.77
2019-04-27T01:12:50.740Z,8.83
2019-04-27T01:15:18.381Z,9.07
2019-04-27T01:17:45.959Z,9.80
2019-04-27T01:20:14.928Z,7.40
2019-04-27T01:22:42.570Z,7.57
2019-04-27T01:25:10.206Z,6.67
2019-04-27T01:27:50.250Z,6.67
2019-04-27T01:30:26.398Z,7.93
2019-04-27T01:32:53.998Z,9.67
2019-04-27T01:35:21.644Z,6.43
2019-04-27T01:37:49.299Z,9.27
2019-04-27T01:40:16.933Z,7.97
2019-04-27T01:42:44.537Z,7.53
2019-04-27T01:45:12.180Z,6.93
2019-04-27T01:47:39.776Z,7.53
2019-04-27T01:50:08.722Z,9.40
2019-04-27T01:52:36.461Z,8.00
2019-04-27T01:55:04.077Z,7.30
2019-04-27T01:57:31.701Z,6.40
2019-04-27T01:59:59.347Z,9.27
2019-04-27T02:02:47.341Z,6.40
2019-04-27T02:05:34.909Z,6.83
2019-04-27T02:08:02.704Z,7.07
2019-04-27T02:10:30.347Z,6.63
2019-04-27T02:12:58.718Z,8.33
2019-04-27T02:15:26.411Z,7.80
2019-04-27T02:17:54.027Z,9.13
2019-04-27T02:20:21.658Z,7.53
2019-04-27T02:22:50.744Z,7.03
2019-04-27T02:25:19.252Z,8.00
2019-04-27T02:27:51.617Z,6.83
2019-04-27T02:30:56.831Z,7.20
2019-04-27T02:33:43.080Z,9.43
2019-04-27T02:36:14.902Z,8.60
2019-04-27T02:38:40.621Z,6.90
2019-04-27T02:41:09.966Z,6.87
2019-04-27T02:43:43.635Z,6.87
2019-04-27T02:46:11.257Z,6.87
2019-04-27T02:48:54.741Z,5.77
2019-04-27T02:51:10.206Z,5.60
2019-04-27T02:53:53.990Z,7.03
2019-04-27T02:56:21.858Z,7.03
2019-04-27T02:58:49.801Z,8.00
2019-04-27T03:01:19.878Z,6.63
2019-04-27T03:03:47.152Z,5.10
2019-04-27T03:06:14.772Z,6.60
2019-04-27T03:08:42.807Z,5.90
2019-04-27T03:11:10.578Z,5.43
2019-04-27T03:13:59.948Z,6.50
2019-04-27T03:16:42.839Z,6.33
2019-04-27T03:19:31.448Z,5.20
2019-04-27T03:22:24.713Z,5.07
2019-04-27T03:25:26.878Z,6.17
2019-04-27T03:27:55.884Z,5.03
2019-04-27T03:30:23.936Z,5.93
2019-04-27T03:32:56.683Z,5.73
2019-04-27T03:35:22.690Z,6.33
2019-04-27T03:37:50.611Z,6.00
2019-04-27T03:40:20.439Z,5.70
2019-04-27T03:42:50.225Z,5.27
2019-04-27T03:45:19.959Z,4.80
2019-04-27T03:47:50.084Z,7.03
2019-04-27T03:50:21.993Z,5.07
2019-04-27T03:53:02.383Z,7.83
2019-04-27T03:55:32.455Z,8.70
2019-04-27T03:58:21.539Z,7.90
2019-04-27T04:00:49.573Z,9.00
2019-04-27T04:03:17.357Z,6.30
2019-04-27T04:05:44.970Z,5.97
2019-04-27T04:08:12.590Z,6.33
2019-04-27T04:10:44.468Z,6.83
2019-04-27T04:13:20.432Z,4.90
2019-04-27T04:16:23.499Z,5.07
2019-04-27T04:19:00.772Z,6.53
2019-04-27T04:21:29.826Z,4.70
2019-04-27T04:23:57.859Z,4.93
2019-04-27T04:26:25.456Z,4.70
2019-04-27T04:28:53.081Z,4.93
2019-04-27T04:31:21.086Z,7.20
2019-04-27T04:33:49.261Z,4.13
2019-04-27T04:36:17.018Z,4.30
2019-04-27T04:38:44.697Z,4.63
2019-04-27T04:41:16.031Z,6.87
2019-04-27T04:43:49.580Z,3.90
2019-04-27T04:46:54.522Z,5.80
2019-04-27T04:49:22.160Z,4.40
2019-04-27T04:51:50.360Z,4.03
2019-04-27T04:54:19.877Z,5.17
2019-04-27T04:56:49.397Z,5.23
2019-04-27T04:59:17.071Z,4.37
2019-04-27T05:01:44.705Z,5.27
2019-04-27T05:04:12.482Z,4.20
2019-04-27T05:06:40.086Z,5.43
2019-04-27T05:09:09.302Z,6.33
2019-04-27T05:11:37.060Z,4.33
2019-04-27T05:14:04.699Z,4.23
2019-04-27T05:16:32.928Z,3.60
2019-04-27T05:19:00.671Z,4.40
2019-04-27T05:21:31.291Z,3.93
2019-04-27T05:24:00.793Z,5.00
2019-04-27T05:26:29.476Z,5.27
2019-04-27T05:28:59.134Z,4.37
2019-04-27T05:31:26.685Z,4.20
2019-04-27T05:33:54.308Z,5.80
2019-04-27T05:36:21.937Z,4.70
2019-04-27T05:38:49.904Z,5.50
2019-04-27T05:41:18.724Z,4.50
2019-04-27T05:44:07.672Z,6.03
2019-04-27T05:46:52.653Z,5.63
2019-04-27T05:49:31.255Z,6.27
2019-04-27T05:51:59.523Z,3.90
2019-04-27T05:54:27.226Z,4.83
2019-04-27T05:56:54.853Z,4.43
2019-04-27T05:59:22.504Z,5.07
2019-04-27T06:01:50.097Z,6.03
2019-04-27T06:04:19.341Z,4.53
2019-04-27T06:06:47.118Z,6.77
2019-04-27T06:09:14.759Z,5.87
2019-04-27T06:11:42.366Z,5.33
2019-04-27T06:14:10.007Z,5.43
2019-04-27T06:16:39.227Z,6.07
2019-04-27T06:19:07.133Z,5.90
2019-04-27T06:21:34.784Z,6.83
2019-04-27T06:24:02.395Z,7.40
2019-04-27T06:26:30.171Z,4.90
2019-04-27T06:28:59.443Z,7.00
2019-04-27T06:31:27.373Z,5.57
2019-04-27T06:33:55.001Z,5.17
2019-04-27T06:36:23.277Z,5.97
2019-04-27T06:38:50.897Z,5.20
2019-04-27T06:41:18.976Z,8.27
2019-04-27T06:43:46.673Z,6.67
2019-04-27T06:46:14.329Z,6.23
2019-04-27T06:48:41.944Z,6.63
2019-04-27T06:51:09.798Z,5.57
2019-04-27T06:53:39.228Z,7.43
2019-04-27T06:56:06.808Z,6.37
2019-04-27T06:58:34.422Z,7.17
2019-04-27T07:01:02.047Z,7.73
2019-04-27T07:03:29.664Z,8.37
2019-04-27T07:05:58.869Z,6.40
2019-04-27T07:08:28.720Z,6.77
2019-04-27T07:10:56.191Z,9.50
2019-04-27T07:13:23.804Z,7.57
2019-04-27T07:15:51.437Z,7.47
2019-04-27T07:18:25.865Z,8.83
2019-04-27T07:20:53.553Z,7.40
2019-04-27T07:23:21.137Z,8.77
2019-04-27T07:25:48.853Z,8.60
2019-04-27T07:28:16.476Z,7.83
2019-04-27T07:30:44.112Z,11.77
2019-04-27T07:33:11.754Z,9.90
2019-04-27T07:35:39.423Z,11.70
2019-04-27T07:38:07.148Z,11.83
2019-04-27T07:40:34.797Z,10.27
2019-04-27T07:43:09.426Z,8.50
2019-04-27T07:45:39.476Z,10.00
2019-04-27T07:48:08.963Z,10.27
2019-04-27T07:50:36.646Z,12.10
2019-04-27T07:53:04.292Z,10.03
2019-04-27T07:55:31.913Z,12.33
2019-04-27T07:57:59.918Z,13.40
2019-04-27T08:00:29.739Z,10.23
2019-04-27T08:02:58.600Z,11.33
2019-04-27T08:05:26.366Z,11.47
2019-04-27T08:07:53.980Z,9.83
2019-04-27T08:10:21.620Z,13.27
2019-04-27T08:12:49.810Z,10.60
2019-04-27T08:15:18.931Z,11.20
2019-04-27T08:17:46.778Z,12.30
2019-04-27T08:20:14.394Z,11.47
2019-04-27T08:22:42.050Z,11.27
2019-04-27T08:25:09.670Z,10.93
2019-04-27T08:27:53.734Z,11.37
2019-04-27T08:30:39.504Z,13.03
2019-04-27T08:33:09.153Z,12.83
2019-04-27T08:35:36.826Z,12.33
2019-04-27T08:38:04.475Z,12.73
2019-04-27T08:40:32.080Z,13.27
2019-04-27T08:43:00.333Z,14.87
2019-04-27T08:45:29.268Z,14.67
2019-04-27T08:47:57.076Z,12.17
2019-04-27T08:50:24.702Z,11.90
2019-04-27T08:52:52.307Z,10.93
2019-04-27T08:55:19.934Z,12.83
2019-04-27T08:57:48.878Z,11.53
2019-04-27T09:00:17.068Z,11.90
2019-04-27T09:02:47.284Z,14.83
2019-04-27T09:05:15.916Z,14.73
2019-04-27T09:07:50.209Z,11.93
2019-04-27T09:10:55.689Z,12.00
2019-04-27T09:13:32.454Z,13.07
2019-04-27T09:16:19.628Z,12.37
2019-04-27T09:18:49.780Z,11.93
2019-04-27T09:21:19.111Z,13.33
2019-04-27T09:23:46.852Z,12.30
2019-04-27T09:26:14.481Z,12.17
2019-04-27T09:28:42.135Z,12.77
2019-04-27T09:31:09.803Z,11.97
2019-04-27T09:33:37.419Z,14.13
2019-04-27T09:36:06.097Z,14.13
2019-04-27T09:38:35.647Z,10.70
2019-04-27T09:41:03.364Z,7.97
2019-04-27T09:43:30.986Z,5.53
2019-04-27T09:45:58.630Z,4.77
2019-04-27T09:48:26.222Z,6.90
2019-04-27T09:50:55.796Z,4.63
2019-04-27T09:53:23.267Z,8.70
2019-04-27T09:55:50.944Z,5.60
2019-04-27T09:58:18.747Z,7.97
2019-04-27T10:00:48.424Z,8.43
2019-04-27T10:03:16.071Z,8.03
2019-04-27T10:05:43.696Z,8.93
2019-04-27T10:08:11.290Z,5.93
2019-04-27T10:10:39.089Z,6.53
2019-04-27T10:13:07.116Z,8.10
2019-04-27T10:15:35.641Z,8.37
2019-04-27T10:18:03.455Z,5.93
2019-04-27T10:20:31.153Z,6.07
2019-04-27T10:22:58.818Z,6.13
2019-04-27T10:25:27.778Z,9.03
2019-04-27T10:27:58.161Z,7.83
2019-04-27T10:30:26.061Z,9.17
2019-04-27T10:32:54.138Z,6.07
2019-04-27T10:35:21.937Z,7.40
2019-04-27T10:37:49.926Z,6.87
2019-04-27T10:40:17.573Z,9.47
2019-04-27T10:42:45.884Z,10.00
2019-04-27T10:45:15.624Z,6.20
2019-04-27T10:47:43.334Z,9.87
2019-04-27T10:50:12.212Z,6.40
2019-04-27T10:52:52.624Z,7.67
2019-04-27T10:55:09.322Z,9.47
2019-04-27T10:57:37.000Z,7.50
2019-04-27T11:00:06.717Z,11.33
2019-04-27T11:02:34.588Z,7.70
2019-04-27T11:05:21.828Z,9.07
2019-04-27T11:07:49.635Z,8.27
2019-04-27T11:10:17.241Z,7.90
2019-04-27T11:12:45.789Z,9.10
2019-04-27T11:15:13.826Z,8.40
2019-04-27T11:17:41.471Z,10.93
2019-04-27T11:20:09.505Z,8.17
2019-04-27T11:22:37.199Z,11.20
2019-04-27T11:25:06.212Z,10.23
2019-04-27T11:27:34.043Z,7.30
2019-04-27T11:30:01.672Z,8.33
2019-04-27T11:32:29.309Z,9.83
2019-04-27T11:35:31.529Z,17.40
2019-04-27T11:37:59.309Z,9.57
2019-04-27T11:40:26.906Z,11.07
2019-04-27T11:42:57.041Z,10.70
2019-04-27T11:45:23.943Z,3.93
2019-04-27T11:47:51.553Z,5.53
2019-04-27T11:50:19.272Z,4.90
2019-04-27T11:52:46.899Z,5.70
2019-04-27T11:55:16.077Z,4.83
2019-04-27T11:57:43.885Z,4.13
2019-04-27T12:00:13.723Z,6.80
2019-04-27T12:02:41.344Z,3.13
2019-04-27T12:05:09.091Z,3.37
2019-04-27T12:07:36.701Z,5.20
2019-04-27T12:10:05.704Z,3.90
2019-04-27T12:12:33.418Z,2.20
2019-04-27T12:15:01.138Z,3.57
2019-04-27T12:17:29.259Z,4.30
2019-04-27T12:19:57.010Z,2.47
2019-04-27T12:22:24.629Z,6.30
2019-04-27T12:24:52.270Z,5.33
2019-04-27T12:27:57.629Z,6.77
2019-04-27T12:30:32.308Z,7.73
2019-04-27T12:32:59.987Z,6.63
2019-04-27T12:35:29.518Z,5.33
2019-04-27T12:37:57.128Z,7.03
2019-04-27T12:40:26.819Z,4.80
2019-04-27T12:42:54.682Z,5.03
2019-04-27T12:45:22.336Z,5.37
2019-04-27T12:47:49.990Z,4.53
2019-04-27T12:50:17.845Z,6.00
2019-04-27T12:52:47.626Z,6.50
2019-04-27T12:55:32.156Z,7.45
2019-04-27T12:58:19.301Z,5.63
2019-04-27T13:00:48.573Z,9.13
2019-04-27T13:03:16.173Z,5.55
2019-04-27T13:05:43.793Z,8.93
2019-04-27T13:08:11.405Z,7.47
2019-04-27T13:10:39.199Z,6.40
2019-04-27T13:13:06.790Z,5.95
2019-04-27T13:15:35.663Z,7.28
2019-04-27T13:18:03.545Z,5.55
2019-04-27T13:20:31.214Z,5.42
2019-04-27T13:23:01.654Z,6.60
2019-04-27T13:25:28.402Z,5.83
2019-04-27T13:27:56.720Z,8.65
2019-04-27T13:30:25.743Z,6.45
2019-04-27T13:32:53.470Z,7.10
2019-04-27T13:35:21.360Z,6.85
2019-04-27T13:37:49.026Z,7.95
2019-04-27T13:40:18.509Z,6.93
2019-04-27T13:42:57.249Z,5.97
2019-04-27T13:45:40.925Z,7.70
2019-04-27T13:48:43.507Z,7.63
2019-04-27T13:51:13.416Z,8.97
2019-04-27T13:53:41.154Z,7.33
2019-04-27T13:56:15.039Z,7.40
2019-04-27T13:58:43.212Z,6.97
2019-04-27T14:01:11.476Z,7.17
2019-04-27T14:03:39.133Z,5.40
2019-04-27T14:06:08.095Z,7.27
2019-04-27T14:08:35.884Z,11.73
2019-04-27T14:11:03.615Z,5.30
2019-04-27T14:13:31.351Z,6.23
2019-04-27T14:15:59.058Z,7.57
2019-04-27T14:18:26.777Z,7.00
2019-04-27T14:20:55.787Z,6.93
2019-04-27T14:23:25.404Z,6.87
2019-04-27T14:25:53.055Z,8.97
2019-04-27T14:28:20.698Z,5.00
2019-04-27T14:30:48.724Z,5.20
2019-04-27T14:33:18.423Z,4.33
2019-04-27T14:35:46.033Z,4.97
2019-04-27T14:38:13.787Z,6.70
2019-04-27T14:40:41.510Z,6.42
2019-04-27T14:43:09.198Z,4.60
2019-04-27T14:45:38.305Z,4.78
2019-04-27T14:48:08.145Z,8.08
2019-04-27T14:50:35.941Z,4.25
2019-04-27T14:53:03.657Z,6.22
2019-04-27T14:55:31.296Z,4.62
2019-04-27T14:57:58.997Z,6.45
2019-04-27T15:00:26.681Z,6.62
2019-04-27T15:02:54.348Z,7.23
2019-04-27T15:05:21.997Z,9.23
2019-04-27T15:07:49.757Z,6.30
2019-04-27T15:10:17.924Z,6.60
2019-04-27T15:12:45.560Z,10.73
2019-04-27T15:15:13.163Z,4.70
2019-04-27T15:17:40.815Z,3.03
2019-04-27T15:20:12.377Z,9.10
2019-04-27T15:22:40.464Z,5.50
2019-04-27T15:25:13.038Z,5.20
2019-04-27T15:27:43.181Z,2.67
2019-04-27T15:30:17.777Z,4.00
2019-04-27T15:33:16.082Z,3.27
2019-04-27T15:35:50.007Z,6.42
2019-04-27T15:38:21.057Z,6.65
2019-04-27T15:41:08.848Z,8.10
2019-04-27T15:43:38.726Z,5.50
2019-04-27T15:46:08.150Z,8.03
2019-04-27T15:48:35.936Z,6.17
2019-04-27T15:51:09.520Z,6.33
2019-04-27T15:53:33.070Z,6.77
2019-04-27T15:56:01.888Z,7.07
2019-04-27T15:58:29.659Z,4.63
2019-04-27T16:01:02.410Z,7.50
2019-04-27T16:03:29.807Z,6.23
2019-04-27T16:05:56.107Z,7.50
2019-04-27T16:08:23.761Z,5.47
2019-04-27T16:10:51.400Z,8.70
2019-04-27T16:13:19.059Z,9.27
2019-04-27T16:15:50.306Z,8.70
2019-04-27T16:18:16.178Z,10.50
2019-04-27T16:20:43.858Z,9.33
2019-04-27T16:23:11.614Z,8.80
2019-04-27T16:25:48.598Z,10.77
2019-04-27T16:28:09.677Z,14.20
2019-04-27T16:30:39.142Z,9.47
2019-04-27T16:33:08.604Z,10.13
2019-04-27T16:35:36.487Z,9.30
2019-04-27T16:38:19.350Z,11.57
2019-04-27T16:40:47.047Z,7.97
2019-04-27T16:43:14.662Z,7.27
2019-04-27T16:45:42.370Z,7.77
2019-04-27T16:48:09.981Z,9.23
2019-04-27T16:50:39.056Z,7.03
2019-04-27T16:53:09.060Z,5.73
2019-04-27T16:55:36.237Z,7.60
2019-04-27T16:58:03.913Z,7.47
2019-04-27T17:00:31.633Z,8.07
2019-04-27T17:03:01.951Z,11.33
2019-04-27T17:05:34.274Z,11.40
2019-04-27T17:07:58.124Z,9.57
2019-04-27T17:10:29.056Z,8.13
2019-04-27T17:12:56.531Z,8.43
2019-04-27T17:15:53.472Z,8.47
2019-04-27T17:18:24.356Z,9.17
2019-04-27T17:21:00.971Z,9.33
2019-04-27T17:23:31.143Z,6.67
2019-04-27T17:26:05.977Z,11.00
2019-04-27T17:28:37.473Z,10.00
2019-04-27T17:31:08.539Z,11.63
2019-04-27T17:33:38.182Z,9.13
2019-04-27T17:36:07.919Z,7.70
2019-04-27T17:38:35.514Z,7.60
2019-04-27T17:41:04.717Z,6.40
2019-04-27T17:43:32.708Z,12.40
2019-04-27T17:46:00.314Z,13.73
2019-04-27T17:48:28.822Z,9.33
2019-04-27T17:51:02.561Z,7.67
2019-04-27T17:53:29.942Z,11.33
2019-04-27T17:56:02.669Z,13.90
2019-04-27T17:58:24.962Z,14.40
2019-04-27T18:00:52.666Z,15.00
2019-04-27T18:03:21.187Z,14.73
2019-04-27T18:05:51.856Z,16.27
2019-04-27T18:08:24.642Z,19.53
2019-04-27T18:10:48.172Z,19.80
2019-04-27T18:13:19.022Z,19.13
2019-04-27T18:15:45.853Z,20.03
2019-04-27T18:18:22.905Z,19.10
2019-04-27T18:20:50.940Z,18.47
2019-04-27T18:23:21.420Z,12.87
2019-04-27T18:25:54.965Z,13.63
2019-04-27T18:28:24.931Z,13.20
2019-04-27T18:31:16.196Z,12.67
2019-04-27T18:33:41.563Z,13.27
2019-04-27T18:36:13.696Z,12.13
2019-04-27T18:38:39.224Z,13.87
2019-04-27T18:41:07.918Z,15.17
2019-04-27T18:43:36.350Z,14.67
2019-04-27T18:46:04.008Z,13.73
2019-04-27T18:48:40.097Z,15.87
2019-04-27T18:51:25.264Z,18.70
2019-04-27T18:53:54.248Z,15.93
2019-04-27T18:56:25.093Z,12.60
2019-04-27T18:58:52.721Z,10.23
2019-04-27T19:01:20.321Z,11.93
2019-04-27T19:03:49.497Z,13.17
2019-04-27T19:06:18.787Z,14.13
2019-04-27T19:08:46.504Z,15.37
2019-04-27T19:11:14.156Z,15.63
2019-04-27T19:13:41.792Z,12.53
2019-04-27T19:16:09.402Z,12.53
2019-04-27T19:18:37.826Z,14.90
2019-04-27T19:21:06.509Z,14.37
2019-04-27T19:23:34.199Z,13.83
2019-04-27T19:26:12.736Z,22.83
2019-04-27T19:28:59.890Z,16.53
2019-04-27T19:31:31.130Z,14.37
2019-04-27T19:33:58.757Z,17.43
2019-04-27T19:36:27.946Z,14.87
2019-04-27T19:39:03.869Z,16.87
2019-04-27T19:41:31.865Z,15.87
2019-04-27T19:43:59.942Z,9.47
2019-04-27T19:46:28.818Z,15.30
2019-04-27T19:48:59.047Z,18.27
2019-04-27T19:51:28.233Z,10.90
2019-04-27T19:53:58.026Z,13.40
2019-04-27T19:56:25.397Z,14.97
2019-04-27T19:58:55.633Z,18.37
2019-04-27T20:01:31.583Z,13.63
2019-04-27T20:04:10.436Z,17.47
2019-04-27T20:06:38.483Z,19.47
2019-04-27T20:09:18.635Z,15.70
2019-04-27T20:11:46.450Z,20.37
2019-04-27T20:14:14.144Z,15.73
2019-04-27T20:16:41.846Z,16.90
2019-04-27T20:19:09.453Z,18.63
2019-04-27T20:21:40.793Z,13.87
2019-04-27T20:24:08.548Z,14.43
2019-04-27T20:26:36.223Z,17.17
2019-04-27T20:29:03.926Z,16.37
2019-04-27T20:31:32.574Z,12.53
2019-04-27T20:34:00.357Z,18.53
2019-04-27T20:36:27.979Z,23.53
2019-04-27T20:38:55.723Z,18.30
2019-04-27T20:41:23.365Z,19.33
2019-04-27T20:43:51.082Z,15.87
2019-04-27T20:46:18.825Z,14.33
2019-04-27T20:48:46.459Z,21.23
2019-04-27T20:51:14.113Z,18.43
2019-04-27T20:53:46.139Z,15.47
2019-04-27T20:56:13.861Z,18.30
2019-04-27T20:58:41.506Z,21.10
2019-04-27T21:01:09.221Z,16.83
2019-04-27T21:03:45.688Z,15.90
2019-04-27T21:06:24.491Z,14.90
2019-04-27T21:08:52.109Z,21.33
2019-04-27T21:11:20.941Z,19.77
2019-04-27T21:13:48.697Z,14.23
2019-04-27T21:16:16.354Z,16.57
2019-04-27T21:18:44.032Z,18.87
2019-04-27T21:21:11.688Z,13.53
2019-04-27T21:23:41.256Z,17.30
2019-04-27T21:26:08.901Z,15.13
2019-04-27T21:28:36.541Z,17.53
2019-04-27T21:31:04.231Z,16.43
2019-04-27T21:33:31.925Z,16.10
2019-04-27T21:36:01.327Z,18.10
2019-04-27T21:38:28.990Z,23.80
2019-04-27T21:40:56.646Z,12.10
2019-04-27T21:43:24.374Z,16.97
2019-04-27T21:45:52.057Z,11.80
2019-04-27T21:48:21.170Z,12.23
2019-04-27T21:50:49.037Z,16.53
2019-04-27T21:53:26.898Z,15.43
2019-04-27T21:56:01.950Z,13.57
2019-04-27T21:58:31.487Z,15.33
2019-04-27T22:01:12.908Z,17.63
2019-04-27T22:03:39.429Z,18.70
2019-04-27T22:06:07.053Z,11.90
2019-04-27T22:08:34.683Z,13.97
2019-04-27T22:11:02.358Z,21.53
2019-04-27T22:13:31.209Z,13.47
2019-04-27T22:15:58.997Z,15.47
2019-04-27T22:18:26.618Z,12.20
2019-04-27T22:20:54.260Z,14.73
2019-04-27T22:23:27.833Z,13.10
2019-04-27T22:25:55.420Z,14.80
2019-04-27T22:28:24.399Z,14.37
2019-04-27T22:30:51.982Z,11.40
2019-04-27T22:33:21.354Z,12.47
2019-04-27T22:35:49.102Z,15.37
2019-04-27T22:38:16.762Z,13.53
2019-04-27T22:41:07.159Z,15.40
2019-04-27T22:43:46.873Z,10.83
2019-04-27T22:46:16.997Z,16.40
2019-04-27T22:48:44.634Z,14.10
2019-04-27T22:51:12.249Z,14.40
2019-04-27T22:53:41.060Z,12.63
2019-04-27T22:56:13.606Z,15.47
2019-04-27T22:58:57.089Z,16.77
2019-04-27T23:01:20.998Z,15.77
2019-04-27T23:03:51.565Z,12.17
2019-04-27T23:06:21.528Z,11.77
2019-04-27T23:08:49.152Z,13.47
2019-04-27T23:11:16.783Z,11.73
2019-04-27T23:13:45.323Z,10.87
2019-04-27T23:16:14.745Z,13.00
2019-04-27T23:18:42.390Z,11.00
2019-04-27T23:21:11.732Z,12.33
2019-04-27T23:23:41.220Z,14.43
2019-04-27T23:26:08.973Z,11.43
2019-04-27T23:28:36.655Z,20.77
2019-04-27T23:31:20.988Z,13.67
2019-04-27T23:33:49.028Z,20.70
2019-04-27T23:36:16.658Z,14.90
2019-04-27T23:38:44.315Z,15.70
2019-04-27T23:41:12.039Z,10.93
2019-04-27T23:43:39.740Z,14.87
2019-04-27T23:46:07.377Z,12.07
2019-04-27T23:48:35.052Z,13.93
2019-04-27T23:51:17.816Z,15.10
2019-04-27T23:53:45.840Z,8.60
2019-04-27T23:56:13.455Z,17.57
2019-04-27T23:58:41.185Z,9.57
